createdAt,value
2022-10-17T00:01:44.772Z,9.40
2022-10-17T00:04:11.113Z,12.48
2022-10-17T00:06:37.462Z,10.90
2022-10-17T00:09:04.078Z,11.40
2022-10-17T00:11:30.397Z,10.20
2022-10-17T00:13:56.716Z,9.25
2022-10-17T00:16:27.466Z,10.52
2022-10-17T00:18:54.292Z,11.75
2022-10-17T00:21:21.686Z,10.80
2022-10-17T00:23:48.003Z,9.68
2022-10-17T00:26:14.898Z,11.27
2022-10-17T00:28:41.216Z,11.95
2022-10-17T00:31:10.167Z,11.93
2022-10-17T00:33:36.953Z,8.63
2022-10-17T00:36:11.236Z,12.27
2022-10-17T00:38:37.575Z,12.23
2022-10-17T00:41:04.541Z,11.73
2022-10-17T00:43:48.408Z,10.25
2022-10-17T00:46:15.103Z,8.80
2022-10-17T00:48:41.852Z,12.43
2022-10-17T00:51:08.304Z,10.45
2022-10-17T00:53:35.451Z,10.65
2022-10-17T00:56:01.932Z,11.73
2022-10-17T00:58:28.394Z,9.57
2022-10-17T01:00:54.672Z,10.40
2022-10-17T01:03:21.162Z,9.43
2022-10-17T01:05:47.451Z,9.40
2022-10-17T01:08:14.062Z,12.38
2022-10-17T01:10:55.165Z,9.43
2022-10-17T01:13:29.989Z,10.43
2022-10-17T01:16:05.686Z,12.90
2022-10-17T01:18:47.760Z,11.30
2022-10-17T01:21:20.271Z,9.70
2022-10-17T01:24:06.714Z,12.15
2022-10-17T01:26:50.218Z,10.35
2022-10-17T01:29:16.780Z,10.30
2022-10-17T01:31:49.890Z,11.75
2022-10-17T01:34:22.295Z,10.77
2022-10-17T01:37:14.818Z,13.00
2022-10-17T01:39:56.706Z,9.45
2022-10-17T01:42:32.287Z,11.85
2022-10-17T01:45:02.044Z,9.80
2022-10-17T01:47:30.844Z,13.43
2022-10-17T01:49:59.855Z,11.25
2022-10-17T01:52:33.526Z,10.10
2022-10-17T01:55:11.990Z,10.90
2022-10-17T01:57:40.712Z,12.07
2022-10-17T02:00:09.787Z,11.32
2022-10-17T02:02:39.822Z,12.80
2022-10-17T02:05:06.840Z,11.68
2022-10-17T02:07:33.210Z,12.63
2022-10-17T02:09:59.499Z,12.77
2022-10-17T02:12:35.001Z,11.90
2022-10-17T02:15:07.691Z,12.18
2022-10-17T02:17:50.899Z,12.85
2022-10-17T02:20:21.230Z,11.50
2022-10-17T02:22:51.382Z,13.00
2022-10-17T02:25:23.591Z,12.90
2022-10-17T02:27:56.382Z,14.20
2022-10-17T02:30:28.587Z,13.00
2022-10-17T02:32:59.809Z,14.07
2022-10-17T02:35:29.439Z,15.15
2022-10-17T02:37:56.495Z,14.43
2022-10-17T02:40:24.371Z,13.43
2022-10-17T02:42:52.849Z,18.38
2022-10-17T02:45:20.147Z,12.20
2022-10-17T02:47:54.256Z,15.75
2022-10-17T02:50:22.639Z,14.93
2022-10-17T02:52:52.743Z,15.40
2022-10-17T02:55:29.449Z,14.27
2022-10-17T02:58:00.816Z,17.95
2022-10-17T03:00:28.724Z,13.95
2022-10-17T03:02:55.950Z,14.18
2022-10-17T03:05:23.359Z,14.25
2022-10-17T03:07:50.076Z,18.98
2022-10-17T03:10:17.309Z,15.13
2022-10-17T03:12:43.758Z,18.35
2022-10-17T03:15:11.718Z,12.45
2022-10-17T03:17:38.107Z,14.23
2022-10-17T03:20:05.235Z,13.60
2022-10-17T03:22:32.272Z,13.95
2022-10-17T03:25:00.886Z,12.10
2022-10-17T03:27:28.904Z,13.02
2022-10-17T03:29:55.745Z,11.82
2022-10-17T03:32:22.120Z,12.45
2022-10-17T03:34:48.479Z,21.58
2022-10-17T03:37:15.332Z,13.38
2022-10-17T03:39:42.174Z,13.82
2022-10-17T03:42:08.792Z,15.43
2022-10-17T03:44:35.207Z,13.15
2022-10-17T03:47:01.598Z,13.52
2022-10-17T03:49:27.912Z,11.30
2022-10-17T03:51:54.216Z,10.73
2022-10-17T03:54:20.650Z,10.43
2022-10-17T03:56:47.036Z,11.85
2022-10-17T03:59:17.125Z,15.18
2022-10-17T04:01:50.883Z,13.07
2022-10-17T04:04:18.468Z,11.55
2022-10-17T04:06:44.771Z,10.90
2022-10-17T04:09:11.254Z,13.75
2022-10-17T04:11:47.296Z,14.30
2022-10-17T04:14:14.307Z,17.05
2022-10-17T04:16:41.696Z,12.90
2022-10-17T04:19:13.656Z,13.82
2022-10-17T04:21:43.972Z,16.15
2022-10-17T04:24:11.388Z,12.98
2022-10-17T04:26:44.019Z,11.27
2022-10-17T04:29:10.866Z,21.52
2022-10-17T04:31:37.967Z,11.48
2022-10-17T04:34:19.014Z,16.38
2022-10-17T04:36:47.026Z,14.60
2022-10-17T04:41:40.677Z,15.57
2022-10-17T04:44:07.214Z,13.32
2022-10-17T04:46:37.935Z,15.07
2022-10-17T04:49:05.642Z,13.68
2022-10-17T04:51:32.562Z,12.40
2022-10-17T04:54:16.608Z,13.07
2022-10-17T04:56:47.464Z,13.65
2022-10-17T04:59:14.462Z,13.15
2022-10-17T05:01:43.468Z,12.40
2022-10-17T05:04:10.180Z,10.48
2022-10-17T05:06:37.663Z,14.55
2022-10-17T05:09:27.078Z,16.60
2022-10-17T05:11:53.999Z,12.85
2022-10-17T05:14:20.439Z,15.07
2022-10-17T05:16:47.634Z,10.15
2022-10-17T05:19:14.083Z,11.35
2022-10-17T05:21:46.318Z,16.00
2022-10-17T05:24:14.148Z,14.32
2022-10-17T05:26:40.719Z,15.38
2022-10-17T05:29:07.171Z,16.45
2022-10-17T05:31:37.531Z,13.82
2022-10-17T05:34:07.991Z,9.77
2022-10-17T05:36:37.592Z,12.45
2022-10-17T05:39:04.922Z,17.95
2022-10-17T05:41:32.947Z,11.65
2022-10-17T05:44:01.797Z,10.02
2022-10-17T05:46:39.453Z,13.25
2022-10-17T05:49:15.114Z,13.45
2022-10-17T05:51:52.399Z,15.52
2022-10-17T05:54:18.859Z,13.45
2022-10-17T05:56:45.509Z,10.75
2022-10-17T05:59:11.941Z,13.70
2022-10-17T06:01:58.548Z,12.27
2022-10-17T06:04:27.741Z,11.93
2022-10-17T06:06:56.168Z,10.20
2022-10-17T06:09:23.345Z,15.70
2022-10-17T06:11:52.315Z,12.27
2022-10-17T06:14:20.009Z,11.73
2022-10-17T06:16:49.114Z,12.65
2022-10-17T06:19:15.967Z,12.43
2022-10-17T06:21:42.475Z,12.27
2022-10-17T06:24:13.144Z,15.50
2022-10-17T06:26:41.569Z,17.33
2022-10-17T06:29:10.297Z,11.52
2022-10-17T06:31:42.783Z,14.43
2022-10-17T06:34:09.200Z,13.00
2022-10-17T06:36:37.683Z,13.30
2022-10-17T06:39:05.034Z,11.40
2022-10-17T06:41:36.816Z,15.43
2022-10-17T06:44:10.856Z,10.52
2022-10-17T06:46:56.677Z,13.43
2022-10-17T06:49:23.249Z,13.07
2022-10-17T06:52:18.769Z,12.32
2022-10-17T06:55:07.447Z,10.57
2022-10-17T06:57:47.899Z,11.88
2022-10-17T07:00:40.208Z,11.88
2022-10-17T07:03:07.015Z,13.85
2022-10-17T07:05:33.423Z,13.00
2022-10-17T07:07:59.805Z,9.35
2022-10-17T07:10:26.596Z,12.50
2022-10-17T07:12:52.908Z,15.50
2022-10-17T07:15:19.225Z,12.50
2022-10-17T07:17:48.332Z,11.27
2022-10-17T07:22:42.731Z,11.57
2022-10-17T07:25:09.810Z,13.27
2022-10-17T07:27:43.303Z,11.15
2022-10-17T07:30:10.208Z,17.25
2022-10-17T07:32:46.203Z,13.52
2022-10-17T07:35:14.395Z,12.45
2022-10-17T07:37:41.662Z,12.07
2022-10-17T07:40:08.435Z,15.77
2022-10-17T07:42:37.126Z,11.75
2022-10-17T07:45:03.900Z,14.93
2022-10-17T07:47:35.450Z,10.95
2022-10-17T07:50:02.803Z,12.53
2022-10-17T07:52:29.320Z,14.68
2022-10-17T07:54:55.847Z,12.55
2022-10-17T07:57:22.273Z,12.93
2022-10-17T07:59:48.608Z,11.57
2022-10-17T08:02:21.536Z,18.00
2022-10-17T08:04:48.029Z,15.10
2022-10-17T08:07:22.048Z,14.00
2022-10-17T08:09:50.861Z,10.95
2022-10-17T08:12:17.652Z,17.17
2022-10-17T08:14:44.312Z,16.40
2022-10-17T08:17:10.799Z,24.83
2022-10-17T08:19:40.643Z,17.90
2022-10-17T08:22:07.225Z,20.80
2022-10-17T08:24:34.702Z,26.45
2022-10-17T08:27:01.071Z,32.70
2022-10-17T08:29:27.597Z,24.13
2022-10-17T08:32:00.801Z,24.48
2022-10-17T08:34:29.177Z,17.75
2022-10-17T08:36:55.527Z,17.33
2022-10-17T08:39:21.945Z,17.92
2022-10-17T08:41:54.573Z,20.77
2022-10-17T08:44:36.872Z,24.42
2022-10-17T08:47:05.292Z,21.70
2022-10-17T08:49:41.111Z,13.73
2022-10-17T08:52:16.681Z,26.25
2022-10-17T08:54:46.006Z,27.52
2022-10-17T08:57:16.874Z,24.50
2022-10-17T09:02:12.587Z,18.00
2022-10-17T09:04:54.321Z,36.90
2022-10-17T09:07:30.545Z,26.95
2022-10-17T09:09:57.040Z,23.90
2022-10-17T09:12:41.577Z,29.52
2022-10-17T09:15:26.694Z,20.48
2022-10-17T09:17:58.368Z,22.05
2022-10-17T09:20:36.849Z,22.42
2022-10-17T09:23:03.253Z,21.33
2022-10-17T09:25:32.195Z,27.52
2022-10-17T09:28:12.363Z,25.60
2022-10-17T09:30:47.234Z,22.48
2022-10-17T09:33:34.765Z,26.23
2022-10-17T09:36:17.054Z,22.85
2022-10-17T09:38:50.787Z,24.23
2022-10-17T09:41:46.380Z,27.55
2022-10-17T09:44:23.812Z,29.48
2022-10-17T09:46:50.088Z,37.83
2022-10-17T09:49:18.443Z,26.42
2022-10-17T09:51:44.718Z,20.33
2022-10-17T09:54:20.040Z,25.65
2022-10-17T09:57:03.084Z,21.58
2022-10-17T10:02:28.945Z,19.42
2022-10-17T10:05:06.053Z,22.05
2022-10-17T10:07:39.085Z,20.40
2022-10-17T10:10:23.975Z,21.45
2022-10-17T10:13:04.992Z,21.05
2022-10-17T10:15:33.919Z,21.50
2022-10-17T10:20:41.632Z,29.75
2022-10-17T10:23:12.500Z,21.42
2022-10-17T10:28:10.602Z,18.25
2022-10-17T10:30:39.163Z,18.38
2022-10-17T10:33:06.467Z,20.10
2022-10-17T10:35:36.190Z,17.23
2022-10-17T10:38:03.808Z,22.55
2022-10-17T10:40:37.271Z,18.48
2022-10-17T10:43:05.723Z,24.17
2022-10-17T10:45:53.593Z,14.77
2022-10-17T10:48:27.603Z,17.20
2022-10-17T10:50:59.052Z,13.35
2022-10-17T10:53:47.195Z,14.52
2022-10-17T10:56:37.016Z,19.10
2022-10-17T10:59:12.648Z,14.02
2022-10-17T11:01:51.754Z,10.98
2022-10-17T11:04:37.110Z,12.27
2022-10-17T11:07:22.555Z,12.13
2022-10-17T11:10:01.204Z,23.10
2022-10-17T11:12:31.504Z,13.23
2022-10-17T11:15:01.912Z,10.57
2022-10-17T11:17:34.256Z,11.15
2022-10-17T11:20:09.824Z,9.77
2022-10-17T11:22:42.092Z,9.13
2022-10-17T11:25:12.907Z,11.68
2022-10-17T11:30:06.023Z,9.70
2022-10-17T11:32:39.732Z,11.15
2022-10-17T11:35:15.185Z,8.93
2022-10-17T11:37:48.315Z,10.18
2022-10-17T11:40:20.390Z,10.52
2022-10-17T11:42:56.942Z,12.90
2022-10-17T11:45:26.128Z,11.30
2022-10-17T11:47:59.949Z,12.95
2022-10-17T11:53:20.529Z,9.38
2022-10-17T11:55:47.195Z,12.35
2022-10-17T11:58:36.558Z,13.10
2022-10-17T12:01:02.946Z,12.20
2022-10-17T12:03:32.614Z,11.65
2022-10-17T12:05:58.976Z,13.13
2022-10-17T12:08:40.372Z,9.55
2022-10-17T12:11:09.806Z,16.38
2022-10-17T12:13:37.357Z,12.80
2022-10-17T12:16:19.091Z,12.98
2022-10-17T12:18:49.718Z,12.68
2022-10-17T12:21:16.032Z,11.93
2022-10-17T12:23:51.459Z,7.20
2022-10-17T12:26:26.005Z,9.30
2022-10-17T12:28:52.691Z,7.38
2022-10-17T12:31:19.984Z,6.43
2022-10-17T12:33:46.376Z,5.97
2022-10-17T12:36:20.979Z,5.68
2022-10-17T12:39:02.716Z,7.47
2022-10-17T12:41:38.226Z,5.05
2022-10-17T12:44:14.130Z,6.97
2022-10-17T12:46:42.360Z,8.07
2022-10-17T12:49:22.533Z,5.72
2022-10-17T12:52:07.828Z,12.67
2022-10-17T12:54:47.832Z,11.30
2022-10-17T12:57:22.823Z,6.07
2022-10-17T12:59:49.334Z,5.20
2022-10-17T13:02:20.555Z,7.28
2022-10-17T13:04:47.929Z,6.38
2022-10-17T13:07:23.513Z,9.05
2022-10-17T13:09:50.320Z,9.35
2022-10-17T13:12:20.181Z,9.82
2022-10-17T13:14:47.253Z,6.47
2022-10-17T13:17:27.628Z,10.68
2022-10-17T13:19:54.553Z,8.75
2022-10-17T13:22:20.841Z,6.13
2022-10-17T13:24:47.804Z,11.90
2022-10-17T13:27:33.559Z,7.55
2022-10-17T13:30:01.120Z,7.30
2022-10-17T13:32:35.847Z,7.63
2022-10-17T13:35:09.902Z,7.78
2022-10-17T13:37:36.779Z,11.35
2022-10-17T13:40:17.533Z,7.32
2022-10-17T13:42:50.687Z,8.27
2022-10-17T13:45:29.623Z,12.15
2022-10-17T13:47:56.411Z,9.82
2022-10-17T13:50:43.614Z,8.88
2022-10-17T13:53:17.295Z,9.82
2022-10-17T13:56:09.523Z,10.77
2022-10-17T13:58:41.116Z,8.95
2022-10-17T14:01:08.613Z,10.52
2022-10-17T14:03:47.912Z,9.52
2022-10-17T14:06:15.196Z,9.03
2022-10-17T14:08:50.156Z,8.23
2022-10-17T14:11:21.984Z,7.97
2022-10-17T14:13:49.580Z,10.88
2022-10-17T14:16:16.290Z,9.25
2022-10-17T14:18:47.335Z,12.85
2022-10-17T14:24:16.198Z,11.85
2022-10-17T14:26:48.761Z,8.52
2022-10-17T14:29:20.992Z,9.50
2022-10-17T14:31:50.475Z,9.70
2022-10-17T14:34:21.828Z,11.98
2022-10-17T14:36:50.602Z,10.68
2022-10-17T14:39:21.914Z,7.50
2022-10-17T14:41:49.053Z,10.52
2022-10-17T14:44:20.804Z,7.20
2022-10-17T14:46:51.005Z,8.75
2022-10-17T14:49:24.527Z,8.93
2022-10-17T14:52:14.890Z,11.15
2022-10-17T14:54:50.005Z,8.25
2022-10-17T14:57:22.686Z,8.90
2022-10-17T14:59:54.285Z,14.15
2022-10-17T15:02:21.948Z,9.77
2022-10-17T15:04:48.327Z,10.48
2022-10-17T15:07:16.210Z,11.63
2022-10-17T15:09:43.418Z,13.23
2022-10-17T15:12:17.562Z,8.27
2022-10-17T15:14:44.378Z,9.75
2022-10-17T15:17:30.487Z,9.77
2022-10-17T15:19:57.080Z,12.65
2022-10-17T15:22:23.789Z,9.35
2022-10-17T15:24:50.158Z,8.27
2022-10-17T15:27:18.299Z,11.07
2022-10-17T15:29:44.818Z,8.35
2022-10-17T15:32:11.366Z,14.57
2022-10-17T15:34:37.792Z,11.65
2022-10-17T15:37:04.704Z,13.82
2022-10-17T15:39:30.997Z,11.93
2022-10-17T15:41:57.413Z,10.35
2022-10-17T15:44:24.092Z,14.48
2022-10-17T15:49:30.681Z,8.35
2022-10-17T15:51:56.950Z,13.30
2022-10-17T15:54:23.456Z,13.00
2022-10-17T15:56:52.918Z,12.82
2022-10-17T15:59:21.730Z,13.38
2022-10-17T16:01:48.650Z,11.25
2022-10-17T16:04:15.840Z,10.23
2022-10-17T16:06:42.980Z,9.38
2022-10-17T16:09:09.351Z,14.60
2022-10-17T16:11:37.395Z,14.85
2022-10-17T16:14:05.385Z,9.75
2022-10-17T16:16:32.039Z,12.20
2022-10-17T16:18:58.455Z,14.45
2022-10-17T16:21:32.405Z,11.52
2022-10-17T16:23:59.382Z,11.80
2022-10-17T16:26:26.423Z,9.48
2022-10-17T16:28:53.061Z,12.45
2022-10-17T16:31:24.515Z,9.40
2022-10-17T16:33:52.121Z,11.82
2022-10-17T16:38:59.167Z,14.07
2022-10-17T16:41:26.984Z,12.77
2022-10-17T16:43:54.317Z,12.32
2022-10-17T16:46:21.228Z,10.30
2022-10-17T16:48:47.775Z,13.40
2022-10-17T16:56:23.425Z,12.18
2022-10-17T16:58:50.429Z,12.45
2022-10-17T17:01:18.836Z,10.32
2022-10-17T17:03:46.215Z,6.55
2022-10-17T17:06:14.266Z,11.60
2022-10-17T17:08:41.650Z,8.52
2022-10-17T17:11:08.669Z,9.98
2022-10-17T17:13:36.185Z,10.30
2022-10-17T17:16:06.449Z,7.80
2022-10-17T17:18:33.175Z,7.57
2022-10-17T17:21:00.786Z,7.97
2022-10-17T17:23:27.549Z,6.80
2022-10-17T17:26:00.871Z,14.07
2022-10-17T17:28:27.856Z,4.25
2022-10-17T17:30:55.200Z,8.93
2022-10-17T17:33:25.188Z,13.50
2022-10-17T17:35:55.041Z,10.07
2022-10-17T17:38:21.435Z,24.30
2022-10-17T17:40:50.670Z,10.18
2022-10-17T17:43:18.173Z,10.93
2022-10-17T17:45:44.456Z,9.05
2022-10-17T17:48:11.011Z,8.00
2022-10-17T17:50:37.596Z,7.88
2022-10-17T17:53:04.695Z,5.25
2022-10-17T17:55:31.270Z,10.95
2022-10-17T17:57:57.671Z,7.53
2022-10-17T18:00:24.421Z,11.65
2022-10-17T18:02:51.051Z,5.75
2022-10-17T18:05:17.696Z,15.18
2022-10-17T18:07:44.041Z,10.95
2022-10-17T18:15:22.220Z,8.27
2022-10-17T18:17:49.099Z,8.93
2022-10-17T18:20:15.944Z,8.02
2022-10-17T18:22:42.249Z,10.32
2022-10-17T18:25:08.710Z,10.05
2022-10-17T18:27:35.138Z,9.93
2022-10-17T18:30:01.798Z,11.80
2022-10-17T18:32:30.053Z,15.32
2022-10-17T18:34:56.591Z,15.07
2022-10-17T18:37:22.985Z,9.55
2022-10-17T18:39:51.554Z,17.23
2022-10-17T18:42:18.247Z,18.58
2022-10-17T18:44:44.760Z,12.77
2022-10-17T18:47:11.398Z,12.40
2022-10-17T18:49:37.762Z,11.38
2022-10-17T18:52:04.283Z,12.82
2022-10-17T18:54:33.305Z,13.50
2022-10-17T18:56:59.600Z,12.25
2022-10-17T18:59:25.905Z,12.10
2022-10-17T19:01:52.314Z,11.57
2022-10-17T19:04:18.914Z,15.50
2022-10-17T19:06:45.260Z,13.60
2022-10-17T19:09:12.684Z,9.65
2022-10-17T19:11:39.102Z,13.82
2022-10-17T19:14:13.019Z,12.13
2022-10-17T19:16:49.490Z,10.98
2022-10-17T19:19:18.807Z,14.43
2022-10-17T19:21:45.553Z,14.30
2022-10-17T19:24:13.527Z,15.10
2022-10-17T19:26:40.701Z,14.65
2022-10-17T19:29:07.240Z,16.85
2022-10-17T19:31:34.211Z,13.25
2022-10-17T19:34:00.675Z,13.25
2022-10-17T19:36:30.760Z,15.10
2022-10-17T19:39:00.861Z,16.55
2022-10-17T19:41:30.694Z,15.23
2022-10-17T19:43:57.939Z,15.23
2022-10-17T19:46:25.198Z,13.10
2022-10-17T19:48:51.887Z,17.90
2022-10-17T19:51:19.003Z,14.93
2022-10-17T19:53:45.499Z,19.40
2022-10-17T19:56:12.028Z,19.00
2022-10-17T19:58:44.885Z,15.45
2022-10-17T20:01:12.624Z,15.30
2022-10-17T20:03:38.967Z,23.40
2022-10-17T20:06:06.078Z,23.20
2022-10-17T20:08:32.488Z,15.52
2022-10-17T20:11:03.201Z,24.45
2022-10-17T20:13:29.620Z,16.17
2022-10-17T20:15:56.806Z,14.50
2022-10-17T20:18:23.661Z,20.70
2022-10-17T20:20:50.146Z,22.25
2022-10-17T20:23:16.582Z,23.10
2022-10-17T20:25:42.897Z,22.45
2022-10-17T20:28:09.319Z,24.08
2022-10-17T20:30:35.837Z,21.55
2022-10-17T20:33:02.206Z,25.88
2022-10-17T20:35:28.567Z,24.13
2022-10-17T20:37:54.929Z,28.73
2022-10-17T20:40:34.577Z,28.58
2022-10-17T20:43:01.777Z,26.52
2022-10-17T20:45:43.608Z,30.88
2022-10-17T20:48:15.432Z,30.48
2022-10-17T20:50:42.531Z,31.27
2022-10-17T20:53:35.009Z,25.73
2022-10-17T20:56:09.508Z,24.30
2022-10-17T20:58:35.852Z,23.77
2022-10-17T21:01:08.867Z,38.80
2022-10-17T21:03:37.803Z,27.23
2022-10-17T21:08:32.488Z,23.90
2022-10-17T21:11:08.558Z,21.17
2022-10-17T21:13:34.886Z,22.10
2022-10-17T21:16:05.140Z,21.27
2022-10-17T21:18:31.414Z,30.73
2022-10-17T21:21:06.081Z,26.27
2022-10-17T21:23:32.538Z,24.92
2022-10-17T21:25:59.243Z,18.27
2022-10-17T21:28:25.557Z,26.83
2022-10-17T21:30:51.877Z,29.95
2022-10-17T21:33:18.227Z,66.10
2022-10-17T21:35:44.515Z,23.85
2022-10-17T21:38:10.792Z,43.08
2022-10-17T21:40:37.071Z,48.83
2022-10-17T21:43:03.469Z,22.42
2022-10-17T21:45:29.743Z,18.67
2022-10-17T21:48:12.316Z,57.42
2022-10-17T21:50:39.326Z,156.52
2022-10-17T21:53:05.668Z,58.40
2022-10-17T21:55:32.154Z,25.70
2022-10-17T21:57:58.498Z,21.88
2022-10-17T22:00:24.774Z,24.63
2022-10-17T22:02:51.078Z,60.90
2022-10-17T22:05:17.557Z,96.88
2022-10-17T22:07:43.839Z,102.30
2022-10-17T22:10:10.130Z,28.05
2022-10-17T22:12:36.433Z,18.80
2022-10-17T22:15:03.621Z,22.00
2022-10-17T22:17:30.235Z,320.75
2022-10-17T22:19:56.705Z,71.22
2022-10-17T22:22:23.049Z,117.57
2022-10-17T22:24:49.411Z,192.15
2022-10-17T22:27:15.689Z,94.05
2022-10-17T22:29:42.011Z,138.02
2022-10-17T22:32:08.282Z,66.15
2022-10-17T22:34:34.680Z,137.95
2022-10-17T22:37:00.980Z,101.28
2022-10-17T22:39:27.266Z,111.07
2022-10-17T22:41:53.547Z,180.10
2022-10-17T22:44:19.851Z,118.10
2022-10-17T22:46:46.179Z,217.43
2022-10-17T22:49:12.507Z,153.23
2022-10-17T22:51:38.819Z,88.13
2022-10-17T22:54:05.196Z,61.00
2022-10-17T22:56:31.605Z,56.85
2022-10-17T22:58:57.936Z,110.95
2022-10-17T23:01:25.266Z,43.90
2022-10-17T23:03:52.400Z,62.15
2022-10-17T23:06:19.066Z,84.68
2022-10-17T23:08:45.369Z,54.80
2022-10-17T23:11:11.918Z,73.22
2022-10-17T23:13:39.658Z,110.47
2022-10-17T23:16:06.467Z,69.13
2022-10-17T23:18:32.806Z,81.72
2022-10-17T23:20:59.148Z,103.05
2022-10-17T23:23:25.603Z,122.30
2022-10-17T23:25:52.672Z,141.32
2022-10-17T23:28:19.061Z,202.63
2022-10-17T23:30:45.476Z,192.93
2022-10-17T23:33:12.768Z,110.57
2022-10-17T23:35:39.431Z,80.07
2022-10-17T23:38:05.752Z,47.53
2022-10-17T23:40:32.050Z,118.65
2022-10-17T23:42:58.402Z,72.63
2022-10-17T23:45:24.717Z,100.78
2022-10-17T23:47:51.019Z,96.40
2022-10-17T23:50:17.580Z,80.18
2022-10-17T23:52:43.848Z,75.53
2022-10-17T23:55:10.527Z,106.88
2022-10-17T23:57:36.836Z,117.40
